sensor_id;sensor_type;location;lat;lon;timestamp;temperature;humidity
7648;DHT22;3866;48.020;11.720;2023-07-20T00:00:09;17.20;99.90
7648;DHT22;3866;48.020;11.720;2023-07-20T00:02:38;17.20;99.90
7648;DHT22;3866;48.020;11.720;2023-07-20T00:05:05;17.20;99.90
7648;DHT22;3866;48.020;11.720;2023-07-20T00:07:32;17.30;99.90
7648;DHT22;3866;48.020;11.720;2023-07-20T00:09:59;17.20;99.90
7648;DHT22;3866;48.020;11.720;2023-07-20T00:12:26;17.20;99.90
7648;DHT22;3866;48.020;11.720;2023-07-20T00:14:53;17.30;99.90
7648;DHT22;3866;48.020;11.720;2023-07-20T00:17:21;17.30;99.90
7648;DHT22;3866;48.020;11.720;2023-07-20T00:19:48;17.30;99.90
7648;DHT22;3866;48.020;11.720;2023-07-20T00:22:15;17.20;99.90
7648;DHT22;3866;48.020;11.720;2023-07-20T00:24:42;17.20;99.90
7648;DHT22;3866;48.020;11.720;2023-07-20T00:27:08;17.10;99.90
7648;DHT22;3866;48.020;11.720;2023-07-20T00:29:35;17.10;99.90
7648;DHT22;3866;48.020;11.720;2023-07-20T00:32:03;17.10;99.90
7648;DHT22;3866;48.020;11.720;2023-07-20T00:34:33;17.00;99.90
7648;DHT22;3866;48.020;11.720;2023-07-20T00:36:59;17.00;99.90
7648;DHT22;3866;48.020;11.720;2023-07-20T00:39:26;17.00;99.90
7648;DHT22;3866;48.020;11.720;2023-07-20T00:41:53;17.00;99.90
7648;DHT22;3866;48.020;11.720;2023-07-20T00:44:20;16.90;99.90
7648;DHT22;3866;48.020;11.720;2023-07-20T00:46:47;17.00;99.90
7648;DHT22;3866;48.020;11.720;2023-07-20T00:49:14;17.00;99.90
7648;DHT22;3866;48.020;11.720;2023-07-20T00:51:43;17.00;99.90
7648;DHT22;3866;48.020;11.720;2023-07-20T00:54:10;17.10;99.90
7648;DHT22;3866;48.020;11.720;2023-07-20T00:56:37;17.10;99.90
7648;DHT22;3866;48.020;11.720;2023-07-20T00:59:05;17.10;99.90
7648;DHT22;3866;48.020;11.720;2023-07-20T01:01:32;17.20;99.90
7648;DHT22;3866;48.020;11.720;2023-07-20T01:03:59;17.20;99.90
7648;DHT22;3866;48.020;11.720;2023-07-20T01:06:33;17.10;99.90
7648;DHT22;3866;48.020;11.720;2023-07-20T01:09:09;17.10;99.90
7648;DHT22;3866;48.020;11.720;2023-07-20T01:11:46;17.10;99.90
7648;DHT22;3866;48.020;11.720;2023-07-20T01:14:17;17.20;99.90
7648;DHT22;3866;48.020;11.720;2023-07-20T01:16:44;17.20;99.90
7648;DHT22;3866;48.020;11.720;2023-07-20T01:19:13;17.20;99.90
7648;DHT22;3866;48.020;11.720;2023-07-20T01:21:45;17.30;99.90
7648;DHT22;3866;48.020;11.720;2023-07-20T01:30:28;17.40;99.90
7648;DHT22;3866;48.020;11.720;2023-07-20T01:33:03;17.40;99.90
7648;DHT22;3866;48.020;11.720;2023-07-20T01:35:31;17.40;99.90
7648;DHT22;3866;48.020;11.720;2023-07-20T01:37:59;17.30;99.90
7648;DHT22;3866;48.020;11.720;2023-07-20T01:40:27;17.40;99.90
7648;DHT22;3866;48.020;11.720;2023-07-20T01:42:53;17.30;99.90
7648;DHT22;3866;48.020;11.720;2023-07-20T01:45:20;17.40;99.90
7648;DHT22;3866;48.020;11.720;2023-07-20T01:47:47;17.60;99.90
7648;DHT22;3866;48.020;11.720;2023-07-20T01:50:16;17.60;99.90
7648;DHT22;3866;48.020;11.720;2023-07-20T01:52:43;17.50;99.90
7648;DHT22;3866;48.020;11.720;2023-07-20T01:55:09;17.50;99.90
7648;DHT22;3866;48.020;11.720;2023-07-20T01:57:36;17.50;99.90
7648;DHT22;3866;48.020;11.720;2023-07-20T02:00:04;17.50;99.90
7648;DHT22;3866;48.020;11.720;2023-07-20T02:02:31;17.40;99.90
7648;DHT22;3866;48.020;11.720;2023-07-20T02:04:58;17.30;99.90
7648;DHT22;3866;48.020;11.720;2023-07-20T02:07:26;17.30;99.90
7648;DHT22;3866;48.020;11.720;2023-07-20T02:09:53;17.20;99.90
7648;DHT22;3866;48.020;11.720;2023-07-20T02:12:20;17.30;99.90
7648;DHT22;3866;48.020;11.720;2023-07-20T02:14:47;17.30;99.90
7648;DHT22;3866;48.020;11.720;2023-07-20T02:17:16;17.30;99.90
7648;DHT22;3866;48.020;11.720;2023-07-20T02:19:43;17.30;99.90
7648;DHT22;3866;48.020;11.720;2023-07-20T02:22:10;17.30;99.90
7648;DHT22;3866;48.020;11.720;2023-07-20T02:24:39;17.40;99.90
7648;DHT22;3866;48.020;11.720;2023-07-20T02:27:06;17.40;99.90
7648;DHT22;3866;48.020;11.720;2023-07-20T02:29:32;17.40;99.90
7648;DHT22;3866;48.020;11.720;2023-07-20T02:31:59;17.40;99.90
7648;DHT22;3866;48.020;11.720;2023-07-20T02:34:26;17.40;99.90
7648;DHT22;3866;48.020;11.720;2023-07-20T02:36:53;17.40;99.90
7648;DHT22;3866;48.020;11.720;2023-07-20T02:39:22;17.40;99.90
7648;DHT22;3866;48.020;11.720;2023-07-20T02:41:50;17.40;99.90
7648;DHT22;3866;48.020;11.720;2023-07-20T02:44:17;17.50;99.90
7648;DHT22;3866;48.020;11.720;2023-07-20T02:46:44;17.50;99.90
7648;DHT22;3866;48.020;11.720;2023-07-20T02:49:11;17.40;99.90
7648;DHT22;3866;48.020;11.720;2023-07-20T02:51:38;17.50;99.90
7648;DHT22;3866;48.020;11.720;2023-07-20T02:54:04;17.60;99.90
7648;DHT22;3866;48.020;11.720;2023-07-20T02:56:31;17.70;99.90
7648;DHT22;3866;48.020;11.720;2023-07-20T02:59:01;17.80;99.90
7648;DHT22;3866;48.020;11.720;2023-07-20T03:01:28;17.70;99.90
7648;DHT22;3866;48.020;11.720;2023-07-20T03:03:55;17.70;99.90
7648;DHT22;3866;48.020;11.720;2023-07-20T03:06:23;17.80;99.90
7648;DHT22;3866;48.020;11.720;2023-07-20T03:08:49;17.70;99.90
7648;DHT22;3866;48.020;11.720;2023-07-20T03:11:18;17.70;99.90
7648;DHT22;3866;48.020;11.720;2023-07-20T03:13:45;17.60;99.90
7648;DHT22;3866;48.020;11.720;2023-07-20T03:16:17;17.40;99.90
7648;DHT22;3866;48.020;11.720;2023-07-20T03:18:43;17.30;99.90
7648;DHT22;3866;48.020;11.720;2023-07-20T03:21:11;16.80;99.90
7648;DHT22;3866;48.020;11.720;2023-07-20T03:23:39;16.50;99.90
7648;DHT22;3866;48.020;11.720;2023-07-20T03:26:06;16.30;99.90
7648;DHT22;3866;48.020;11.720;2023-07-20T03:28:34;16.20;99.90
7648;DHT22;3866;48.020;11.720;2023-07-20T03:31:01;16.30;99.90
7648;DHT22;3866;48.020;11.720;2023-07-20T03:33:30;16.10;99.90
7648;DHT22;3866;48.020;11.720;2023-07-20T03:35:57;16.00;99.90
7648;DHT22;3866;48.020;11.720;2023-07-20T03:38:25;16.00;99.90
7648;DHT22;3866;48.020;11.720;2023-07-20T03:40:53;16.10;99.90
7648;DHT22;3866;48.020;11.720;2023-07-20T03:43:21;16.00;99.90
7648;DHT22;3866;48.020;11.720;2023-07-20T03:45:49;15.90;99.90
7648;DHT22;3866;48.020;11.720;2023-07-20T03:48:16;15.60;99.90
7648;DHT22;3866;48.020;11.720;2023-07-20T03:50:47;15.50;99.90
7648;DHT22;3866;48.020;11.720;2023-07-20T03:53:15;15.30;99.90
7648;DHT22;3866;48.020;11.720;2023-07-20T03:55:42;15.20;99.90
7648;DHT22;3866;48.020;11.720;2023-07-20T03:58:11;15.20;99.90
7648;DHT22;3866;48.020;11.720;2023-07-20T04:00:39;15.20;99.90
7648;DHT22;3866;48.020;11.720;2023-07-20T04:03:06;15.20;99.90
7648;DHT22;3866;48.020;11.720;2023-07-20T04:05:33;15.20;99.90
7648;DHT22;3866;48.020;11.720;2023-07-20T04:08:01;15.30;99.90
7648;DHT22;3866;48.020;11.720;2023-07-20T04:10:28;15.40;99.90
7648;DHT22;3866;48.020;11.720;2023-07-20T04:12:55;15.20;99.90
7648;DHT22;3866;48.020;11.720;2023-07-20T04:15:22;15.20;99.90
7648;DHT22;3866;48.020;11.720;2023-07-20T04:17:49;15.10;99.90
7648;DHT22;3866;48.020;11.720;2023-07-20T04:20:15;15.10;99.90
7648;DHT22;3866;48.020;11.720;2023-07-20T04:22:43;15.10;99.90
7648;DHT22;3866;48.020;11.720;2023-07-20T04:25:11;15.10;99.90
7648;DHT22;3866;48.020;11.720;2023-07-20T04:27:38;15.20;99.90
7648;DHT22;3866;48.020;11.720;2023-07-20T04:30:08;15.30;99.90
7648;DHT22;3866;48.020;11.720;2023-07-20T04:32:35;15.30;99.90
7648;DHT22;3866;48.020;11.720;2023-07-20T04:35:06;15.20;99.90
7648;DHT22;3866;48.020;11.720;2023-07-20T04:37:33;15.40;99.90
7648;DHT22;3866;48.020;11.720;2023-07-20T04:40:00;15.40;99.90
7648;DHT22;3866;48.020;11.720;2023-07-20T04:42:29;15.20;99.90
7648;DHT22;3866;48.020;11.720;2023-07-20T04:44:56;15.10;99.90
7648;DHT22;3866;48.020;11.720;2023-07-20T04:47:22;15.10;99.90
7648;DHT22;3866;48.020;11.720;2023-07-20T04:49:49;15.20;99.90
7648;DHT22;3866;48.020;11.720;2023-07-20T04:52:16;15.20;99.90
7648;DHT22;3866;48.020;11.720;2023-07-20T04:54:43;15.30;99.90
7648;DHT22;3866;48.020;11.720;2023-07-20T04:57:11;15.40;99.90
7648;DHT22;3866;48.020;11.720;2023-07-20T04:59:39;15.20;99.90
7648;DHT22;3866;48.020;11.720;2023-07-20T05:02:06;15.30;99.90
7648;DHT22;3866;48.020;11.720;2023-07-20T05:04:33;15.30;99.90
7648;DHT22;3866;48.020;11.720;2023-07-20T05:07:00;15.30;99.90
7648;DHT22;3866;48.020;11.720;2023-07-20T05:09:27;15.30;99.90
7648;DHT22;3866;48.020;11.720;2023-07-20T05:11:54;15.40;99.90
7648;DHT22;3866;48.020;11.720;2023-07-20T05:14:20;15.40;99.90
7648;DHT22;3866;48.020;11.720;2023-07-20T05:16:49;15.30;99.90
7648;DHT22;3866;48.020;11.720;2023-07-20T05:19:15;15.50;99.90
7648;DHT22;3866;48.020;11.720;2023-07-20T05:21:42;15.40;99.90
7648;DHT22;3866;48.020;11.720;2023-07-20T05:24:09;15.50;99.90
7648;DHT22;3866;48.020;11.720;2023-07-20T05:26:36;15.50;99.90
7648;DHT22;3866;48.020;11.720;2023-07-20T05:29:03;15.50;99.90
7648;DHT22;3866;48.020;11.720;2023-07-20T05:31:30;15.50;99.90
7648;DHT22;3866;48.020;11.720;2023-07-20T05:33:58;15.30;99.90
7648;DHT22;3866;48.020;11.720;2023-07-20T05:36:25;15.30;99.90
7648;DHT22;3866;48.020;11.720;2023-07-20T05:38:52;15.40;99.90
7648;DHT22;3866;48.020;11.720;2023-07-20T05:41:19;15.40;99.90
7648;DHT22;3866;48.020;11.720;2023-07-20T05:43:46;15.50;99.90
7648;DHT22;3866;48.020;11.720;2023-07-20T05:46:13;15.50;99.90
7648;DHT22;3866;48.020;11.720;2023-07-20T05:48:40;15.50;99.90
7648;DHT22;3866;48.020;11.720;2023-07-20T05:51:08;15.50;99.90
7648;DHT22;3866;48.020;11.720;2023-07-20T05:53:35;15.50;99.90
7648;DHT22;3866;48.020;11.720;2023-07-20T05:56:04;15.50;99.90
7648;DHT22;3866;48.020;11.720;2023-07-20T05:58:31;15.50;99.90
7648;DHT22;3866;48.020;11.720;2023-07-20T06:00:58;15.60;99.90
7648;DHT22;3866;48.020;11.720;2023-07-20T06:03:24;15.70;99.90
7648;DHT22;3866;48.020;11.720;2023-07-20T06:05:51;15.70;99.90
7648;DHT22;3866;48.020;11.720;2023-07-20T06:08:19;15.80;99.90
7648;DHT22;3866;48.020;11.720;2023-07-20T06:10:50;15.80;99.90
7648;DHT22;3866;48.020;11.720;2023-07-20T06:13:17;15.80;99.90
7648;DHT22;3866;48.020;11.720;2023-07-20T06:15:44;15.90;99.90
7648;DHT22;3866;48.020;11.720;2023-07-20T06:18:11;16.00;99.90
7648;DHT22;3866;48.020;11.720;2023-07-20T06:20:38;16.00;99.90
7648;DHT22;3866;48.020;11.720;2023-07-20T06:23:04;16.00;99.90
7648;DHT22;3866;48.020;11.720;2023-07-20T06:25:33;16.10;99.90
7648;DHT22;3866;48.020;11.720;2023-07-20T06:28:00;16.10;99.90
7648;DHT22;3866;48.020;11.720;2023-07-20T06:30:26;16.20;99.90
7648;DHT22;3866;48.020;11.720;2023-07-20T06:32:53;16.10;99.90
7648;DHT22;3866;48.020;11.720;2023-07-20T06:35:20;16.10;99.90
7648;DHT22;3866;48.020;11.720;2023-07-20T06:37:47;16.00;99.90
7648;DHT22;3866;48.020;11.720;2023-07-20T06:40:14;16.10;99.90
7648;DHT22;3866;48.020;11.720;2023-07-20T06:42:42;16.10;99.90
7648;DHT22;3866;48.020;11.720;2023-07-20T06:45:10;16.20;99.90
7648;DHT22;3866;48.020;11.720;2023-07-20T06:47:37;16.20;99.90
7648;DHT22;3866;48.020;11.720;2023-07-20T06:50:05;16.20;99.90
7648;DHT22;3866;48.020;11.720;2023-07-20T06:52:32;16.20;99.90
7648;DHT22;3866;48.020;11.720;2023-07-20T06:54:59;16.40;99.90
7648;DHT22;3866;48.020;11.720;2023-07-20T06:57:26;16.40;99.90
7648;DHT22;3866;48.020;11.720;2023-07-20T06:59:54;16.60;99.90
7648;DHT22;3866;48.020;11.720;2023-07-20T07:02:21;16.70;99.90
7648;DHT22;3866;48.020;11.720;2023-07-20T07:04:48;16.70;99.90
7648;DHT22;3866;48.020;11.720;2023-07-20T07:07:15;16.60;99.90
7648;DHT22;3866;48.020;11.720;2023-07-20T07:09:42;16.60;99.90
7648;DHT22;3866;48.020;11.720;2023-07-20T07:12:09;16.60;99.90
7648;DHT22;3866;48.020;11.720;2023-07-20T07:14:36;16.50;99.90
7648;DHT22;3866;48.020;11.720;2023-07-20T07:17:04;16.50;99.90
7648;DHT22;3866;48.020;11.720;2023-07-20T07:19:31;16.50;99.90
7648;DHT22;3866;48.020;11.720;2023-07-20T07:21:58;16.60;99.90
7648;DHT22;3866;48.020;11.720;2023-07-20T07:24:25;16.70;99.90
7648;DHT22;3866;48.020;11.720;2023-07-20T07:26:53;16.70;99.90
7648;DHT22;3866;48.020;11.720;2023-07-20T07:29:20;16.90;99.90
7648;DHT22;3866;48.020;11.720;2023-07-20T07:31:47;16.90;99.90
7648;DHT22;3866;48.020;11.720;2023-07-20T07:34:15;17.00;99.90
7648;DHT22;3866;48.020;11.720;2023-07-20T07:36:42;17.00;99.90
7648;DHT22;3866;48.020;11.720;2023-07-20T07:39:09;17.30;99.90
7648;DHT22;3866;48.020;11.720;2023-07-20T07:41:36;17.30;99.90
7648;DHT22;3866;48.020;11.720;2023-07-20T07:44:03;17.40;99.90
7648;DHT22;3866;48.020;11.720;2023-07-20T07:46:30;17.50;99.90
7648;DHT22;3866;48.020;11.720;2023-07-20T07:48:57;17.60;99.90
7648;DHT22;3866;48.020;11.720;2023-07-20T07:51:25;17.70;99.90
7648;DHT22;3866;48.020;11.720;2023-07-20T07:53:54;17.80;99.90
7648;DHT22;3866;48.020;11.720;2023-07-20T07:56:21;18.00;99.90
7648;DHT22;3866;48.020;11.720;2023-07-20T07:58:48;18.00;99.90
7648;DHT22;3866;48.020;11.720;2023-07-20T08:01:17;18.00;99.90
7648;DHT22;3866;48.020;11.720;2023-07-20T08:03:44;18.20;99.90
7648;DHT22;3866;48.020;11.720;2023-07-20T08:06:12;18.30;99.90
7648;DHT22;3866;48.020;11.720;2023-07-20T08:08:41;18.40;99.90
7648;DHT22;3866;48.020;11.720;2023-07-20T08:11:08;18.40;99.90
7648;DHT22;3866;48.020;11.720;2023-07-20T08:13:35;18.30;99.90
7648;DHT22;3866;48.020;11.720;2023-07-20T08:16:02;18.50;99.90
7648;DHT22;3866;48.020;11.720;2023-07-20T08:18:29;18.60;99.90
7648;DHT22;3866;48.020;11.720;2023-07-20T08:20:56;18.50;99.90
7648;DHT22;3866;48.020;11.720;2023-07-20T08:23:23;18.60;99.90
7648;DHT22;3866;48.020;11.720;2023-07-20T08:25:51;18.60;99.90
7648;DHT22;3866;48.020;11.720;2023-07-20T08:28:18;18.60;99.90
7648;DHT22;3866;48.020;11.720;2023-07-20T08:30:47;18.70;99.90
7648;DHT22;3866;48.020;11.720;2023-07-20T08:33:15;18.70;99.90
7648;DHT22;3866;48.020;11.720;2023-07-20T08:35:43;18.90;99.90
7648;DHT22;3866;48.020;11.720;2023-07-20T08:38:10;19.00;99.90
7648;DHT22;3866;48.020;11.720;2023-07-20T08:40:41;18.90;99.90
7648;DHT22;3866;48.020;11.720;2023-07-20T08:43:10;18.80;99.90
7648;DHT22;3866;48.020;11.720;2023-07-20T08:45:39;18.90;99.90
7648;DHT22;3866;48.020;11.720;2023-07-20T08:48:07;18.80;99.90
7648;DHT22;3866;48.020;11.720;2023-07-20T08:50:34;18.80;99.90
7648;DHT22;3866;48.020;11.720;2023-07-20T08:53:02;19.10;99.90
7648;DHT22;3866;48.020;11.720;2023-07-20T08:55:30;19.50;99.90
7648;DHT22;3866;48.020;11.720;2023-07-20T08:57:59;19.50;99.90
7648;DHT22;3866;48.020;11.720;2023-07-20T09:00:27;19.80;99.90
7648;DHT22;3866;48.020;11.720;2023-07-20T09:02:55;20.50;99.90
7648;DHT22;3866;48.020;11.720;2023-07-20T09:05:23;20.60;99.90
7648;DHT22;3866;48.020;11.720;2023-07-20T09:07:51;20.10;99.90
7648;DHT22;3866;48.020;11.720;2023-07-20T09:10:19;20.10;99.90
7648;DHT22;3866;48.020;11.720;2023-07-20T09:12:47;20.10;99.90
7648;DHT22;3866;48.020;11.720;2023-07-20T09:15:15;19.70;99.90
7648;DHT22;3866;48.020;11.720;2023-07-20T09:17:47;20.00;99.90
7648;DHT22;3866;48.020;11.720;2023-07-20T09:20:15;20.30;99.90
7648;DHT22;3866;48.020;11.720;2023-07-20T09:22:43;20.70;99.90
7648;DHT22;3866;48.020;11.720;2023-07-20T09:25:11;20.90;99.90
7648;DHT22;3866;48.020;11.720;2023-07-20T09:27:41;21.40;99.90
7648;DHT22;3866;48.020;11.720;2023-07-20T09:30:09;21.30;99.90
7648;DHT22;3866;48.020;11.720;2023-07-20T09:32:39;20.80;99.90
7648;DHT22;3866;48.020;11.720;2023-07-20T09:35:13;20.80;99.90
7648;DHT22;3866;48.020;11.720;2023-07-20T09:37:41;21.30;99.90
7648;DHT22;3866;48.020;11.720;2023-07-20T09:40:09;21.10;99.90
7648;DHT22;3866;48.020;11.720;2023-07-20T09:42:37;21.20;99.90
7648;DHT22;3866;48.020;11.720;2023-07-20T09:45:07;21.60;99.90
7648;DHT22;3866;48.020;11.720;2023-07-20T09:47:36;21.70;99.90
7648;DHT22;3866;48.020;11.720;2023-07-20T09:50:05;21.50;99.90
7648;DHT22;3866;48.020;11.720;2023-07-20T09:52:38;21.40;99.90
7648;DHT22;3866;48.020;11.720;2023-07-20T09:55:06;21.70;99.90
7648;DHT22;3866;48.020;11.720;2023-07-20T09:57:34;21.90;99.90
7648;DHT22;3866;48.020;11.720;2023-07-20T10:00:01;21.70;99.90
7648;DHT22;3866;48.020;11.720;2023-07-20T10:02:33;21.60;99.90
7648;DHT22;3866;48.020;11.720;2023-07-20T10:05:03;21.50;99.90
7648;DHT22;3866;48.020;11.720;2023-07-20T10:07:31;21.50;99.90
7648;DHT22;3866;48.020;11.720;2023-07-20T10:10:02;21.50;99.90
7648;DHT22;3866;48.020;11.720;2023-07-20T10:12:31;21.50;99.90
7648;DHT22;3866;48.020;11.720;2023-07-20T10:15:06;21.30;99.90
7648;DHT22;3866;48.020;11.720;2023-07-20T10:17:39;21.30;99.90
7648;DHT22;3866;48.020;11.720;2023-07-20T10:20:08;21.40;99.90
7648;DHT22;3866;48.020;11.720;2023-07-20T10:22:36;21.60;99.90
7648;DHT22;3866;48.020;11.720;2023-07-20T10:25:05;21.70;99.90
7648;DHT22;3866;48.020;11.720;2023-07-20T10:27:32;21.50;99.90
7648;DHT22;3866;48.020;11.720;2023-07-20T10:29:59;21.80;99.90
7648;DHT22;3866;48.020;11.720;2023-07-20T10:32:29;21.80;99.90
7648;DHT22;3866;48.020;11.720;2023-07-20T10:34:56;21.70;99.90
7648;DHT22;3866;48.020;11.720;2023-07-20T10:37:45;21.90;99.90
7648;DHT22;3866;48.020;11.720;2023-07-20T10:40:30;22.10;99.90
7648;DHT22;3866;48.020;11.720;2023-07-20T10:43:03;21.70;99.90
7648;DHT22;3866;48.020;11.720;2023-07-20T10:45:45;21.80;99.90
7648;DHT22;3866;48.020;11.720;2023-07-20T10:48:15;21.70;99.90
7648;DHT22;3866;48.020;11.720;2023-07-20T10:50:43;22.00;99.90
7648;DHT22;3866;48.020;11.720;2023-07-20T10:53:11;21.90;99.90
7648;DHT22;3866;48.020;11.720;2023-07-20T10:55:39;22.10;99.90
7648;DHT22;3866;48.020;11.720;2023-07-20T10:58:08;22.10;99.90
7648;DHT22;3866;48.020;11.720;2023-07-20T11:00:37;22.60;99.90
7648;DHT22;3866;48.020;11.720;2023-07-20T11:03:04;23.10;99.90
7648;DHT22;3866;48.020;11.720;2023-07-20T11:05:36;22.80;99.90
7648;DHT22;3866;48.020;11.720;2023-07-20T11:08:10;23.10;99.90
7648;DHT22;3866;48.020;11.720;2023-07-20T11:10:37;23.20;99.90
7648;DHT22;3866;48.020;11.720;2023-07-20T11:13:20;23.30;99.90
7648;DHT22;3866;48.020;11.720;2023-07-20T11:16:01;23.50;99.90
7648;DHT22;3866;48.020;11.720;2023-07-20T11:18:30;23.50;99.90
7648;DHT22;3866;48.020;11.720;2023-07-20T11:20:58;23.70;99.90
7648;DHT22;3866;48.020;11.720;2023-07-20T11:23:25;23.10;99.90
7648;DHT22;3866;48.020;11.720;2023-07-20T11:25:52;22.60;99.90
7648;DHT22;3866;48.020;11.720;2023-07-20T11:28:21;23.00;99.90
7648;DHT22;3866;48.020;11.720;2023-07-20T11:30:52;22.90;99.90
7648;DHT22;3866;48.020;11.720;2023-07-20T11:33:19;23.10;99.90
7648;DHT22;3866;48.020;11.720;2023-07-20T11:35:46;23.30;99.90
7648;DHT22;3866;48.020;11.720;2023-07-20T11:38:13;23.10;99.90
7648;DHT22;3866;48.020;11.720;2023-07-20T11:40:43;22.70;99.90
7648;DHT22;3866;48.020;11.720;2023-07-20T11:43:11;22.90;99.90
7648;DHT22;3866;48.020;11.720;2023-07-20T11:45:39;23.00;99.90
7648;DHT22;3866;48.020;11.720;2023-07-20T11:48:06;23.50;99.90
7648;DHT22;3866;48.020;11.720;2023-07-20T11:50:38;24.10;99.90
7648;DHT22;3866;48.020;11.720;2023-07-20T11:53:06;24.00;99.90
7648;DHT22;3866;48.020;11.720;2023-07-20T11:55:33;24.00;99.90
7648;DHT22;3866;48.020;11.720;2023-07-20T11:58:04;23.90;99.90
7648;DHT22;3866;48.020;11.720;2023-07-20T12:00:31;23.30;99.90
7648;DHT22;3866;48.020;11.720;2023-07-20T12:03:00;23.20;99.90
7648;DHT22;3866;48.020;11.720;2023-07-20T12:05:27;23.30;99.90
7648;DHT22;3866;48.020;11.720;2023-07-20T12:07:54;24.10;99.90
7648;DHT22;3866;48.020;11.720;2023-07-20T12:10:25;24.60;99.90
7648;DHT22;3866;48.020;11.720;2023-07-20T12:12:52;24.60;99.90
7648;DHT22;3866;48.020;11.720;2023-07-20T12:15:21;25.50;99.90
7648;DHT22;3866;48.020;11.720;2023-07-20T12:17:50;25.70;99.90
7648;DHT22;3866;48.020;11.720;2023-07-20T12:20:30;26.40;99.90
7648;DHT22;3866;48.020;11.720;2023-07-20T12:22:59;26.80;99.90
7648;DHT22;3866;48.020;11.720;2023-07-20T12:25:39;27.00;99.90
7648;DHT22;3866;48.020;11.720;2023-07-20T12:28:08;26.00;99.90
7648;DHT22;3866;48.020;11.720;2023-07-20T12:30:36;26.10;99.90
7648;DHT22;3866;48.020;11.720;2023-07-20T12:33:03;26.20;99.90
7648;DHT22;3866;48.020;11.720;2023-07-20T12:35:31;26.20;99.90
7648;DHT22;3866;48.020;11.720;2023-07-20T12:37:58;27.40;99.90
7648;DHT22;3866;48.020;11.720;2023-07-20T12:40:25;26.60;99.90
7648;DHT22;3866;48.020;11.720;2023-07-20T12:42:52;26.20;99.90
7648;DHT22;3866;48.020;11.720;2023-07-20T12:45:19;26.30;99.90
7648;DHT22;3866;48.020;11.720;2023-07-20T12:47:46;26.00;99.90
7648;DHT22;3866;48.020;11.720;2023-07-20T12:50:13;25.70;99.90
7648;DHT22;3866;48.020;11.720;2023-07-20T12:52:41;26.30;99.90
7648;DHT22;3866;48.020;11.720;2023-07-20T12:55:09;27.10;99.90
7648;DHT22;3866;48.020;11.720;2023-07-20T12:57:37;28.00;99.90
7648;DHT22;3866;48.020;11.720;2023-07-20T13:00:05;27.40;99.90
7648;DHT22;3866;48.020;11.720;2023-07-20T13:02:33;28.00;99.90
7648;DHT22;3866;48.020;11.720;2023-07-20T13:05:00;27.40;99.90
7648;DHT22;3866;48.020;11.720;2023-07-20T13:07:32;27.40;99.90
7648;DHT22;3866;48.020;11.720;2023-07-20T13:10:01;26.90;99.90
7648;DHT22;3866;48.020;11.720;2023-07-20T13:12:29;27.20;99.90
7648;DHT22;3866;48.020;11.720;2023-07-20T13:14:57;26.90;99.90
7648;DHT22;3866;48.020;11.720;2023-07-20T13:17:26;26.60;99.90
7648;DHT22;3866;48.020;11.720;2023-07-20T13:19:53;25.50;99.90
7648;DHT22;3866;48.020;11.720;2023-07-20T13:22:20;25.60;99.90
7648;DHT22;3866;48.020;11.720;2023-07-20T13:24:47;26.50;99.90
7648;DHT22;3866;48.020;11.720;2023-07-20T13:27:16;26.60;99.90
7648;DHT22;3866;48.020;11.720;2023-07-20T13:29:43;26.00;99.90
7648;DHT22;3866;48.020;11.720;2023-07-20T13:32:13;24.50;99.90
7648;DHT22;3866;48.020;11.720;2023-07-20T13:34:40;25.20;99.90
7648;DHT22;3866;48.020;11.720;2023-07-20T13:37:07;25.60;99.90
7648;DHT22;3866;48.020;11.720;2023-07-20T13:39:34;25.60;99.90
7648;DHT22;3866;48.020;11.720;2023-07-20T13:42:01;25.60;99.90
7648;DHT22;3866;48.020;11.720;2023-07-20T13:44:32;26.00;99.90
7648;DHT22;3866;48.020;11.720;2023-07-20T13:46:59;25.50;99.90
7648;DHT22;3866;48.020;11.720;2023-07-20T13:49:26;25.50;99.90
7648;DHT22;3866;48.020;11.720;2023-07-20T13:51:53;25.90;99.90
7648;DHT22;3866;48.020;11.720;2023-07-20T13:54:20;26.10;99.90
7648;DHT22;3866;48.020;11.720;2023-07-20T13:56:47;26.20;99.90
7648;DHT22;3866;48.020;11.720;2023-07-20T13:59:14;26.20;99.90
7648;DHT22;3866;48.020;11.720;2023-07-20T14:01:42;26.20;99.90
7648;DHT22;3866;48.020;11.720;2023-07-20T14:04:09;26.10;99.90
7648;DHT22;3866;48.020;11.720;2023-07-20T14:06:36;25.70;99.90
7648;DHT22;3866;48.020;11.720;2023-07-20T14:09:03;25.10;99.90
7648;DHT22;3866;48.020;11.720;2023-07-20T14:11:30;25.20;99.90
7648;DHT22;3866;48.020;11.720;2023-07-20T14:13:57;25.10;99.90
7648;DHT22;3866;48.020;11.720;2023-07-20T14:16:25;24.80;99.90
7648;DHT22;3866;48.020;11.720;2023-07-20T14:18:53;24.60;99.90
7648;DHT22;3866;48.020;11.720;2023-07-20T14:21:21;24.40;99.90
7648;DHT22;3866;48.020;11.720;2023-07-20T14:23:51;24.40;99.90
7648;DHT22;3866;48.020;11.720;2023-07-20T14:26:18;24.70;99.90
7648;DHT22;3866;48.020;11.720;2023-07-20T14:28:45;24.60;99.90
7648;DHT22;3866;48.020;11.720;2023-07-20T14:31:12;24.40;99.90
7648;DHT22;3866;48.020;11.720;2023-07-20T14:33:39;24.30;99.90
7648;DHT22;3866;48.020;11.720;2023-07-20T14:36:07;24.40;99.90
7648;DHT22;3866;48.020;11.720;2023-07-20T14:38:34;24.20;99.90
7648;DHT22;3866;48.020;11.720;2023-07-20T14:41:01;24.50;99.90
7648;DHT22;3866;48.020;11.720;2023-07-20T14:43:28;24.50;99.90
7648;DHT22;3866;48.020;11.720;2023-07-20T14:45:55;24.30;99.90
7648;DHT22;3866;48.020;11.720;2023-07-20T14:48:22;24.80;99.90
7648;DHT22;3866;48.020;11.720;2023-07-20T14:50:49;25.10;99.90
7648;DHT22;3866;48.020;11.720;2023-07-20T14:53:17;25.20;99.90
7648;DHT22;3866;48.020;11.720;2023-07-20T14:55:44;25.30;99.90
7648;DHT22;3866;48.020;11.720;2023-07-20T14:58:11;25.50;99.90
7648;DHT22;3866;48.020;11.720;2023-07-20T15:00:38;25.50;99.90
7648;DHT22;3866;48.020;11.720;2023-07-20T15:03:05;25.40;99.90
7648;DHT22;3866;48.020;11.720;2023-07-20T15:05:35;25.50;99.90
7648;DHT22;3866;48.020;11.720;2023-07-20T15:08:03;25.10;99.90
7648;DHT22;3866;48.020;11.720;2023-07-20T15:10:32;25.00;99.90
7648;DHT22;3866;48.020;11.720;2023-07-20T15:12:59;25.10;99.90
7648;DHT22;3866;48.020;11.720;2023-07-20T15:15:26;25.10;99.90
7648;DHT22;3866;48.020;11.720;2023-07-20T15:17:53;25.10;99.90
7648;DHT22;3866;48.020;11.720;2023-07-20T15:20:20;25.10;99.90
7648;DHT22;3866;48.020;11.720;2023-07-20T15:22:47;25.10;99.90
7648;DHT22;3866;48.020;11.720;2023-07-20T15:25:14;25.10;99.90
7648;DHT22;3866;48.020;11.720;2023-07-20T15:27:42;24.70;99.90
7648;DHT22;3866;48.020;11.720;2023-07-20T15:30:10;24.70;99.90
7648;DHT22;3866;48.020;11.720;2023-07-20T15:32:37;24.90;99.90
7648;DHT22;3866;48.020;11.720;2023-07-20T15:35:04;25.20;99.90
7648;DHT22;3866;48.020;11.720;2023-07-20T15:37:31;25.00;99.90
7648;DHT22;3866;48.020;11.720;2023-07-20T15:39:58;24.70;99.90
7648;DHT22;3866;48.020;11.720;2023-07-20T15:42:29;24.80;99.90
7648;DHT22;3866;48.020;11.720;2023-07-20T15:44:58;24.80;99.90
7648;DHT22;3866;48.020;11.720;2023-07-20T15:47:25;24.40;99.90
7648;DHT22;3866;48.020;11.720;2023-07-20T15:49:52;24.40;99.90
7648;DHT22;3866;48.020;11.720;2023-07-20T15:52:20;24.60;99.90
7648;DHT22;3866;48.020;11.720;2023-07-20T15:54:47;24.70;99.90